createdAt,value
2023-04-02T00:04:09.211Z,7.84
2023-04-02T00:09:17.557Z,7.85
2023-04-02T00:14:31.871Z,7.89
2023-04-02T00:19:51.755Z,7.95
2023-04-02T00:25:02.964Z,7.98
2023-04-02T00:30:06.708Z,7.93
2023-04-02T00:35:21.891Z,7.87
2023-04-02T00:40:26.813Z,7.83
2023-04-02T00:45:33.310Z,7.80
2023-04-02T00:50:55.445Z,7.81
2023-04-02T00:55:58.961Z,7.84
2023-04-02T01:01:04.728Z,7.87
2023-04-02T01:06:15.898Z,7.89
2023-04-02T01:11:44.961Z,7.90
2023-04-02T01:17:26.547Z,7.92
2023-04-02T01:22:49.376Z,7.93
2023-04-02T01:28:13.622Z,7.93
2023-04-02T01:33:30.336Z,7.92
2023-04-02T01:38:45.942Z,7.93
2023-04-02T01:44:03.067Z,7.97
2023-04-02T01:49:21.562Z,7.98
2023-04-02T01:54:25.942Z,8.00
2023-04-02T01:59:33.275Z,8.04
2023-04-02T02:04:47.047Z,8.07
2023-04-02T02:09:54.137Z,8.10
2023-04-02T02:14:59.408Z,8.12
2023-04-02T02:20:15.000Z,8.13
2023-04-02T02:25:30.937Z,8.17
2023-04-02T02:32:05.120Z,8.18
2023-04-02T02:37:31.086Z,8.19
2023-04-02T02:42:42.843Z,8.13
2023-04-02T02:47:48.381Z,8.11
2023-04-02T02:53:15.531Z,8.10
2023-04-02T02:58:39.011Z,8.11
2023-04-02T03:03:59.213Z,8.13
2023-04-02T03:09:31.532Z,8.16
2023-04-02T03:14:41.028Z,8.16
2023-04-02T03:20:02.470Z,8.17
2023-04-02T03:25:24.825Z,8.18
2023-04-02T03:30:50.492Z,8.20
2023-04-02T03:36:14.892Z,8.19
2023-04-02T03:41:47.196Z,8.19
2023-04-02T03:47:20.363Z,8.18
2023-04-02T03:52:27.248Z,8.16
2023-04-02T03:57:48.839Z,8.14
2023-04-02T04:02:57.708Z,8.14
2023-04-02T04:08:50.486Z,8.09
2023-04-02T04:14:05.876Z,8.08
2023-04-02T04:20:02.687Z,8.00
2023-04-02T04:26:09.956Z,7.94
2023-04-02T04:31:41.022Z,7.91
2023-04-02T04:36:56.060Z,7.89
2023-04-02T04:42:19.030Z,7.86
2023-04-02T04:48:12.450Z,7.82
2023-04-02T04:53:50.458Z,7.75
2023-04-02T04:59:21.392Z,7.68
2023-04-02T05:05:03.703Z,7.46
2023-04-02T05:11:04.789Z,7.14
2023-04-02T05:16:45.745Z,6.86
2023-04-02T05:22:26.241Z,6.62
2023-04-02T05:28:01.059Z,6.34
2023-04-02T05:33:18.242Z,6.06
2023-04-02T05:38:32.024Z,5.82
2023-04-02T05:43:48.210Z,5.60
2023-04-02T05:48:56.886Z,5.42
2023-04-02T05:54:04.015Z,5.30
2023-04-02T05:59:37.714Z,5.15
2023-04-02T06:05:02.222Z,4.99
2023-04-02T06:10:14.464Z,4.86
2023-04-02T06:15:21.520Z,4.80
2023-04-02T06:20:27.533Z,4.76
2023-04-02T06:25:47.958Z,4.71
2023-04-02T06:30:54.860Z,4.70
2023-04-02T06:36:04.259Z,4.67
2023-04-02T06:41:19.576Z,4.62
2023-04-02T06:46:55.024Z,4.60
2023-04-02T06:52:00.490Z,4.59
2023-04-02T06:57:05.843Z,4.56
2023-04-02T07:02:31.409Z,4.56
2023-04-02T07:07:37.165Z,4.58
2023-04-02T07:12:45.558Z,4.59
2023-04-02T07:17:52.751Z,4.48
2023-04-02T07:22:56.075Z,4.32
2023-04-02T07:28:14.001Z,4.13
2023-04-02T07:33:23.576Z,3.90
2023-04-02T07:38:25.947Z,3.66
2023-04-02T07:43:28.862Z,3.49
2023-04-02T07:48:34.150Z,3.45
2023-04-02T07:53:41.894Z,3.52
2023-04-02T07:58:44.536Z,3.65
2023-04-02T08:03:47.946Z,3.72
2023-04-02T08:08:51.451Z,3.70
2023-04-02T08:13:53.645Z,3.70
2023-04-02T08:18:56.791Z,3.77
2023-04-02T08:23:59.803Z,3.85
2023-04-02T08:29:05.091Z,4.03
2023-04-02T08:34:09.309Z,4.19
2023-04-02T08:39:34.260Z,4.25
2023-04-02T08:44:52.751Z,4.20
2023-04-02T08:50:02.393Z,4.12
2023-04-02T08:55:32.853Z,4.02
2023-04-02T09:00:45.658Z,3.86
2023-04-02T09:05:51.701Z,3.76
2023-04-02T09:11:13.275Z,3.64
2023-04-02T09:16:39.419Z,3.52
2023-04-02T09:21:53.468Z,3.42
2023-04-02T09:26:56.852Z,3.39
2023-04-02T09:32:50.088Z,3.37
2023-04-02T09:38:17.667Z,3.42
2023-04-02T09:43:30.681Z,3.50
2023-04-02T09:48:41.462Z,3.62
2023-04-02T09:53:49.136Z,3.75
2023-04-02T09:59:13.755Z,3.80
2023-04-02T10:04:45.306Z,3.77
2023-04-02T10:09:58.679Z,3.72
2023-04-02T10:15:06.681Z,3.68
2023-04-02T10:20:20.108Z,3.74
2023-04-02T10:25:30.512Z,3.87
2023-04-02T10:31:08.918Z,3.93
2023-04-02T10:36:55.085Z,4.05
2023-04-02T10:42:30.698Z,4.13
2023-04-02T10:48:16.780Z,4.27
2023-04-02T10:53:48.466Z,4.33
2023-04-02T10:59:01.844Z,4.27
2023-04-02T11:04:21.718Z,4.20
2023-04-02T11:09:41.028Z,4.31
2023-04-02T11:14:43.492Z,4.59
2023-04-02T11:19:56.651Z,4.72
2023-04-02T11:25:14.288Z,4.67
2023-04-02T11:30:30.358Z,4.52
2023-04-02T11:35:53.086Z,4.53
2023-04-02T11:41:00.988Z,4.60
2023-04-02T11:46:41.784Z,4.61
2023-04-02T11:51:56.393Z,4.54
2023-04-02T11:57:33.258Z,4.50
2023-04-02T12:02:57.302Z,4.53
2023-04-02T12:08:22.745Z,4.46
2023-04-02T12:13:58.768Z,4.36
2023-04-02T12:19:19.504Z,4.29
2023-04-02T12:24:44.552Z,4.38
2023-04-02T12:29:57.935Z,4.63
2023-04-02T12:35:05.026Z,4.68
2023-04-02T12:40:26.507Z,4.53
2023-04-02T12:45:39.583Z,4.34
2023-04-02T12:50:50.725Z,4.24
2023-04-02T12:55:59.112Z,4.26
2023-04-02T13:01:27.601Z,4.31
2023-04-02T13:06:41.247Z,4.39
2023-04-02T13:11:46.281Z,4.44
2023-04-02T13:17:00.826Z,4.45
2023-04-02T13:22:43.735Z,4.65
2023-04-02T13:27:59.649Z,4.87
2023-04-02T13:33:13.896Z,4.77
2023-04-02T13:38:21.322Z,4.56
2023-04-02T13:43:42.994Z,4.46
2023-04-02T13:49:09.305Z,4.46
2023-04-02T13:55:04.408Z,4.46
2023-04-02T14:00:17.383Z,4.47
2023-04-02T14:05:57.716Z,4.43
2023-04-02T14:11:40.232Z,4.30
2023-04-02T14:17:21.962Z,4.20
2023-04-02T14:23:07.299Z,4.21
2023-04-02T14:28:59.540Z,4.19
2023-04-02T14:34:39.214Z,4.16
2023-04-02T14:40:07.884Z,4.06
2023-04-02T14:45:31.700Z,3.92
2023-04-02T14:50:50.370Z,3.81
2023-04-02T14:55:59.703Z,3.74
2023-04-02T15:01:15.384Z,3.74
2023-04-02T15:06:25.314Z,3.74
2023-04-02T15:12:18.425Z,3.72
2023-04-02T15:17:59.871Z,3.71
2023-04-02T15:23:57.567Z,3.68
2023-04-02T15:29:58.789Z,3.67
2023-04-02T15:35:29.021Z,3.69
2023-04-02T15:41:25.324Z,3.65
2023-04-02T15:46:53.235Z,3.64
2023-04-02T15:52:43.837Z,3.66
2023-04-02T15:58:21.993Z,3.63
2023-04-02T16:04:13.954Z,3.57
2023-04-02T16:09:32.156Z,3.50
2023-04-02T16:14:50.793Z,3.42
2023-04-02T16:20:57.106Z,3.34
2023-04-02T16:26:16.023Z,3.28
2023-04-02T16:31:53.647Z,3.27
2023-04-02T16:37:38.266Z,3.26
2023-04-02T16:43:15.513Z,3.27
2023-04-02T16:49:36.218Z,3.23
2023-04-02T16:55:25.732Z,3.19
2023-04-02T17:01:17.215Z,3.14
2023-04-02T17:06:54.014Z,3.10
2023-04-02T17:12:24.408Z,3.07
2023-04-02T17:17:42.868Z,3.06
2023-04-02T17:23:05.846Z,3.04
2023-04-02T17:28:42.534Z,3.04
2023-04-02T17:33:45.096Z,3.04
2023-04-02T17:39:47.214Z,3.05
2023-04-02T17:45:05.175Z,3.05
2023-04-02T17:50:25.195Z,3.04
2023-04-02T17:55:43.263Z,3.01
2023-04-02T18:01:22.241Z,2.99
2023-04-02T18:06:38.080Z,2.97
2023-04-02T18:12:27.870Z,2.95
2023-04-02T18:17:54.299Z,2.95
2023-04-02T18:23:40.530Z,2.95
2023-04-02T18:28:56.384Z,2.95
2023-04-02T18:34:40.200Z,2.93
2023-04-02T18:39:54.272Z,2.91
2023-04-02T18:45:30.376Z,2.90
2023-04-02T18:50:41.905Z,2.90
2023-04-02T18:55:55.375Z,2.90
2023-04-02T19:01:02.185Z,2.88
2023-04-02T19:06:46.548Z,2.85
2023-04-02T19:12:06.768Z,2.81
2023-04-02T19:17:39.480Z,2.77
2023-04-02T19:23:10.721Z,2.75
2023-04-02T19:29:17.758Z,2.72
2023-04-02T19:34:34.418Z,2.70
2023-04-02T19:40:31.086Z,2.68
2023-04-02T19:45:46.901Z,2.67
2023-04-02T19:50:51.952Z,2.64
2023-04-02T19:55:57.562Z,2.64
2023-04-02T20:01:01.561Z,2.64
2023-04-02T20:06:06.838Z,2.62
2023-04-02T20:11:14.827Z,2.62
2023-04-02T20:16:17.018Z,2.60
2023-04-02T20:21:19.963Z,2.59
2023-04-02T20:26:34.236Z,2.60
2023-04-02T20:31:49.851Z,2.59
2023-04-02T20:36:54.320Z,2.60
2023-04-02T20:42:02.742Z,2.63
2023-04-02T20:47:08.055Z,2.64
2023-04-02T20:52:16.292Z,2.64
2023-04-02T20:57:21.774Z,2.64
2023-04-02T21:02:35.275Z,2.64
2023-04-02T21:07:49.346Z,2.65
2023-04-02T21:13:14.123Z,2.66
2023-04-02T21:18:22.145Z,2.67
2023-04-02T21:23:30.902Z,2.68
2023-04-02T21:28:36.317Z,2.69
2023-04-02T21:33:50.600Z,2.71
2023-04-02T21:39:23.022Z,2.70
2023-04-02T21:44:29.668Z,2.70
2023-04-02T21:49:39.037Z,2.69
2023-04-02T21:54:53.135Z,2.66
2023-04-02T22:00:12.383Z,2.62
2023-04-02T22:05:17.634Z,2.56
2023-04-02T22:10:31.449Z,2.50
2023-04-02T22:15:35.186Z,2.43
2023-04-02T22:20:41.227Z,2.39
2023-04-02T22:26:09.655Z,2.34
2023-04-02T22:31:19.057Z,2.30
2023-04-02T22:36:37.050Z,2.27
2023-04-02T22:41:42.361Z,2.23
2023-04-02T22:46:50.762Z,2.20
2023-04-02T22:52:28.459Z,2.18
2023-04-02T22:58:02.624Z,2.16
2023-04-02T23:03:14.859Z,2.12
2023-04-02T23:08:28.499Z,2.09
2023-04-02T23:13:49.313Z,2.04
2023-04-02T23:19:22.341Z,2.01
2023-04-02T23:24:27.606Z,2.00
2023-04-02T23:29:30.361Z,1.99
2023-04-02T23:34:33.299Z,1.95
2023-04-02T23:39:50.112Z,1.89
2023-04-02T23:45:16.254Z,1.85
2023-04-02T23:51:41.681Z,1.82
2023-04-02T23:56:46.693Z,1.80
